createdAt,value
2024-05-09T00:00:18.425Z,46.99
2024-05-09T00:01:13.883Z,46.95
2024-05-09T00:02:12.840Z,46.98
2024-05-09T00:03:12.956Z,46.94
2024-05-09T00:04:12.848Z,46.93
2024-05-09T00:05:13.085Z,46.94
2024-05-09T00:06:12.896Z,46.93
2024-05-09T00:07:12.881Z,46.92
2024-05-09T00:08:12.996Z,46.89
2024-05-09T00:09:12.868Z,46.88
2024-05-09T00:10:22.251Z,46.90
2024-05-09T00:11:14.012Z,46.93
2024-05-09T00:12:13.073Z,46.93
2024-05-09T00:13:12.884Z,46.94
2024-05-09T00:14:12.909Z,46.90
2024-05-09T00:15:12.934Z,46.84
2024-05-09T00:16:12.938Z,46.84
2024-05-09T00:17:12.998Z,46.89
2024-05-09T00:18:13.109Z,46.86
2024-05-09T00:19:13.178Z,46.84
2024-05-09T00:20:17.939Z,46.85
2024-05-09T00:21:13.998Z,46.86
2024-05-09T00:22:12.947Z,46.85
2024-05-09T00:23:13.582Z,46.83
2024-05-09T00:24:12.959Z,46.82
2024-05-09T00:25:12.968Z,46.89
2024-05-09T00:26:13.010Z,46.86
2024-05-09T00:27:13.509Z,46.83
2024-05-09T00:28:13.168Z,46.81
2024-05-09T00:29:12.985Z,46.82
2024-05-09T00:30:17.843Z,46.83
2024-05-09T00:31:13.978Z,46.87
2024-05-09T00:32:13.062Z,46.82
2024-05-09T00:33:13.142Z,46.80
2024-05-09T00:34:12.998Z,46.79
2024-05-09T00:35:13.026Z,46.79
2024-05-09T00:36:12.983Z,46.76
2024-05-09T00:37:12.979Z,46.79
2024-05-09T00:38:13.014Z,46.81
2024-05-09T00:39:13.075Z,46.78
2024-05-09T00:40:18.753Z,46.77
2024-05-09T00:41:16.309Z,46.80
2024-05-09T00:42:13.176Z,46.77
2024-05-09T00:43:14.384Z,46.77
2024-05-09T00:44:13.343Z,46.75
2024-05-09T00:45:13.215Z,46.77
2024-05-09T00:46:13.172Z,46.79
2024-05-09T00:47:13.367Z,46.78
2024-05-09T00:48:15.361Z,46.76
2024-05-09T00:49:13.306Z,46.74
2024-05-09T00:50:19.233Z,46.74
2024-05-09T00:51:14.376Z,46.74
2024-05-09T00:52:13.188Z,46.76
2024-05-09T00:53:13.351Z,46.70
2024-05-09T00:54:13.192Z,46.70
2024-05-09T00:55:13.201Z,46.69
2024-05-09T00:56:13.260Z,46.67
2024-05-09T00:57:15.425Z,46.68
2024-05-09T00:58:13.195Z,46.71
2024-05-09T00:59:13.240Z,46.70
2024-05-09T01:00:22.580Z,46.69
2024-05-09T01:01:14.284Z,46.70
2024-05-09T01:02:13.390Z,46.66
2024-05-09T01:03:14.374Z,46.66
2024-05-09T01:04:13.234Z,46.63
2024-05-09T01:05:13.377Z,46.63
2024-05-09T01:06:13.250Z,46.59
2024-05-09T01:07:13.259Z,46.67
2024-05-09T01:08:13.516Z,46.66
2024-05-09T01:09:13.265Z,46.63
2024-05-09T01:10:17.451Z,46.60
2024-05-09T01:11:14.379Z,46.64
2024-05-09T01:12:13.387Z,46.63
2024-05-09T01:13:13.284Z,46.64
2024-05-09T01:14:13.320Z,46.64
2024-05-09T01:15:13.270Z,46.62
2024-05-09T01:16:13.278Z,46.63
2024-05-09T01:17:13.352Z,46.60
2024-05-09T01:18:14.004Z,46.59
2024-05-09T01:19:13.385Z,46.63
2024-05-09T01:21:13.374Z,46.58
2024-05-09T01:22:13.288Z,46.60
2024-05-09T01:23:15.044Z,46.60
2024-05-09T01:24:13.296Z,46.59
2024-05-09T01:25:13.293Z,46.57
2024-05-09T01:26:13.366Z,46.56
2024-05-09T01:27:13.295Z,46.55
2024-05-09T01:28:13.315Z,46.58
2024-05-09T01:29:13.415Z,46.58
2024-05-09T01:31:13.357Z,46.59
2024-05-09T01:32:13.519Z,46.58
2024-05-09T01:33:13.874Z,46.53
2024-05-09T01:34:13.406Z,46.51
2024-05-09T01:35:13.421Z,46.56
2024-05-09T01:36:13.402Z,46.47
2024-05-09T01:37:13.372Z,46.54
2024-05-09T01:38:13.995Z,46.51
2024-05-09T01:39:13.356Z,46.47
2024-05-09T01:40:18.446Z,46.50
2024-05-09T01:41:14.406Z,46.55
2024-05-09T01:42:13.361Z,46.50
2024-05-09T01:43:13.365Z,46.52
2024-05-09T01:44:13.543Z,46.52
2024-05-09T01:45:13.367Z,46.48
2024-05-09T01:46:13.370Z,46.45
2024-05-09T01:47:13.459Z,46.48
2024-05-09T01:48:13.627Z,46.52
2024-05-09T01:49:13.548Z,46.49
2024-05-09T01:50:16.452Z,46.48
2024-05-09T01:51:13.426Z,46.52
2024-05-09T01:52:13.406Z,46.45
2024-05-09T01:53:14.164Z,46.47
2024-05-09T01:54:13.377Z,46.43
2024-05-09T01:55:13.373Z,46.44
2024-05-09T01:56:13.408Z,46.43
2024-05-09T01:57:13.383Z,46.42
2024-05-09T01:58:13.393Z,46.45
2024-05-09T01:59:13.416Z,46.40
2024-05-09T02:01:13.423Z,46.42
2024-05-09T02:02:13.493Z,46.43
2024-05-09T02:03:16.158Z,46.40
2024-05-09T02:04:13.587Z,46.42
2024-05-09T02:05:13.461Z,46.47
2024-05-09T02:06:13.428Z,46.38
2024-05-09T02:07:13.413Z,46.40
2024-05-09T02:08:13.427Z,46.37
2024-05-09T02:09:13.395Z,46.38
2024-05-09T02:10:20.289Z,46.38
2024-05-09T02:11:14.463Z,46.42
2024-05-09T02:12:13.535Z,46.40
2024-05-09T02:13:13.402Z,46.38
2024-05-09T02:14:13.451Z,46.35
2024-05-09T02:15:13.416Z,46.39
2024-05-09T02:16:13.498Z,46.35
2024-05-09T02:17:13.502Z,46.34
2024-05-09T02:18:14.032Z,46.36
2024-05-09T02:19:13.469Z,46.36
2024-05-09T02:20:22.481Z,46.36
2024-05-09T02:21:14.469Z,46.32
2024-05-09T02:22:13.419Z,46.31
2024-05-09T02:23:13.461Z,46.30
2024-05-09T02:24:13.469Z,46.35
2024-05-09T02:25:13.434Z,46.32
2024-05-09T02:26:13.443Z,46.33
2024-05-09T02:27:13.427Z,46.32
2024-05-09T02:28:13.430Z,46.31
2024-05-09T02:29:13.564Z,46.29
2024-05-09T02:30:22.391Z,46.33
2024-05-09T02:31:14.681Z,46.34
2024-05-09T02:32:13.736Z,46.31
2024-05-09T02:33:14.588Z,46.33
2024-05-09T02:34:13.821Z,46.31
2024-05-09T02:35:13.727Z,46.27
2024-05-09T02:36:13.659Z,46.29
2024-05-09T02:37:13.674Z,46.29
2024-05-09T02:38:13.900Z,46.24
2024-05-09T02:39:13.677Z,46.28
2024-05-09T02:40:14.949Z,46.31
2024-05-09T02:41:13.738Z,46.28
2024-05-09T02:42:13.664Z,46.27
2024-05-09T02:43:13.671Z,46.23
2024-05-09T02:44:13.711Z,46.24
2024-05-09T02:45:13.670Z,46.28
2024-05-09T02:46:13.678Z,46.22
2024-05-09T02:47:14.355Z,46.27
2024-05-09T02:48:14.362Z,46.26
2024-05-09T02:49:13.848Z,46.25
2024-05-09T02:50:19.384Z,46.24
2024-05-09T02:51:14.790Z,46.27
2024-05-09T02:52:13.751Z,46.26
2024-05-09T02:53:14.428Z,46.24
2024-05-09T02:54:13.705Z,46.25
2024-05-09T02:55:13.740Z,46.25
2024-05-09T02:56:13.839Z,46.22
2024-05-09T02:57:13.756Z,46.22
2024-05-09T02:58:13.777Z,46.26
2024-05-09T02:59:13.740Z,46.25
2024-05-09T03:00:19.054Z,46.22
2024-05-09T03:01:14.794Z,46.21
2024-05-09T03:02:13.819Z,46.24
2024-05-09T03:03:15.499Z,46.20
2024-05-09T03:04:13.741Z,46.21
2024-05-09T03:05:13.772Z,46.23
2024-05-09T03:06:13.761Z,46.24
2024-05-09T03:07:13.736Z,46.25
2024-05-09T03:08:13.926Z,46.25
2024-05-09T03:09:13.732Z,46.16
2024-05-09T03:10:18.508Z,46.18
2024-05-09T03:11:14.874Z,46.19
2024-05-09T03:12:13.889Z,46.20
2024-05-09T03:13:15.157Z,46.13
2024-05-09T03:14:13.810Z,46.16
2024-05-09T03:15:13.747Z,46.18
2024-05-09T03:16:13.755Z,46.16
2024-05-09T03:17:17.384Z,46.14
2024-05-09T03:18:14.138Z,46.14
2024-05-09T03:19:21.902Z,46.23
2024-05-09T03:20:27.335Z,46.18
2024-05-09T03:21:22.564Z,46.18
2024-05-09T03:22:21.565Z,46.20
2024-05-09T03:23:21.594Z,46.16
2024-05-09T03:24:21.552Z,46.12
2024-05-09T03:25:21.558Z,46.12
2024-05-09T03:26:21.612Z,46.11
2024-05-09T03:27:21.575Z,46.14
2024-05-09T03:28:21.571Z,46.08
2024-05-09T03:29:21.634Z,46.10
2024-05-09T03:30:28.725Z,46.14
2024-05-09T03:31:22.639Z,46.11
2024-05-09T03:32:21.743Z,46.11
2024-05-09T03:33:22.153Z,46.12
2024-05-09T03:34:21.599Z,46.11
2024-05-09T03:35:21.733Z,46.14
2024-05-09T03:36:21.615Z,46.13
2024-05-09T03:37:21.606Z,46.12
2024-05-09T03:38:21.659Z,46.10
2024-05-09T03:39:21.615Z,46.09
2024-05-09T03:40:26.371Z,46.10
2024-05-09T03:41:22.698Z,46.08
2024-05-09T03:42:21.650Z,46.10
2024-05-09T03:43:21.616Z,46.08
2024-05-09T03:44:21.655Z,46.03
2024-05-09T03:45:22.620Z,46.10
2024-05-09T03:46:21.616Z,46.09
2024-05-09T03:47:21.907Z,46.12
2024-05-09T03:48:21.926Z,46.06
2024-05-09T03:49:21.963Z,46.04
2024-05-09T03:50:26.195Z,46.06
2024-05-09T03:51:22.611Z,46.07
2024-05-09T03:52:21.622Z,46.05
2024-05-09T03:53:21.664Z,46.07
2024-05-09T03:54:21.636Z,46.07
2024-05-09T03:55:21.663Z,46.07
2024-05-09T03:56:21.731Z,46.04
2024-05-09T03:57:21.651Z,46.02
2024-05-09T03:58:21.643Z,45.99
2024-05-09T03:59:21.659Z,45.99
2024-05-09T04:00:26.699Z,46.03
2024-05-09T04:01:22.778Z,46.01
2024-05-09T04:02:21.868Z,46.00
2024-05-09T04:03:21.911Z,46.03
2024-05-09T04:04:21.659Z,45.93
2024-05-09T04:05:21.715Z,45.98
2024-05-09T04:06:21.664Z,46.00
2024-05-09T04:07:21.687Z,45.99
2024-05-09T04:08:21.755Z,46.01
2024-05-09T04:09:21.657Z,45.99
2024-05-09T04:11:21.807Z,46.02
2024-05-09T04:12:21.823Z,45.98
2024-05-09T04:13:21.786Z,46.01
2024-05-09T04:14:21.883Z,45.96
2024-05-09T04:15:21.846Z,45.95
2024-05-09T04:16:21.919Z,45.97
2024-05-09T04:17:22.131Z,45.98
2024-05-09T04:18:22.248Z,45.95
2024-05-09T04:19:22.312Z,45.93
2024-05-09T04:21:22.508Z,45.98
2024-05-09T04:22:22.594Z,45.94
2024-05-09T04:23:22.741Z,45.95
2024-05-09T04:24:22.837Z,45.95
2024-05-09T04:25:22.929Z,45.93
2024-05-09T04:26:23.165Z,45.90
2024-05-09T04:27:23.176Z,45.98
2024-05-09T04:28:23.265Z,45.90
2024-05-09T04:29:23.539Z,45.97
2024-05-09T04:30:33.778Z,45.91
2024-05-09T04:31:24.517Z,45.91
2024-05-09T04:32:23.578Z,45.95
2024-05-09T04:33:23.845Z,45.92
2024-05-09T04:34:23.575Z,45.89
2024-05-09T04:35:23.672Z,45.92
2024-05-09T04:36:23.502Z,45.87
2024-05-09T04:37:23.517Z,45.90
2024-05-09T04:38:23.655Z,45.88
2024-05-09T04:39:23.502Z,45.87
2024-05-09T04:40:30.826Z,45.89
2024-05-09T04:41:24.662Z,45.90
2024-05-09T04:42:23.607Z,45.88
2024-05-09T04:43:23.612Z,45.88
2024-05-09T04:44:23.622Z,45.89
2024-05-09T04:45:23.761Z,45.84
2024-05-09T04:46:23.603Z,45.87
2024-05-09T04:47:23.814Z,45.90
2024-05-09T04:48:23.746Z,45.83
2024-05-09T04:49:23.775Z,45.84
2024-05-09T04:51:23.609Z,45.85
2024-05-09T04:52:23.620Z,45.87
2024-05-09T04:53:23.687Z,45.85
2024-05-09T04:54:33.644Z,45.85
2024-05-09T04:55:24.666Z,45.84
2024-05-09T04:56:23.650Z,45.80
2024-05-09T04:57:23.632Z,45.83
2024-05-09T04:58:23.642Z,45.83
2024-05-09T04:59:23.660Z,45.78
2024-05-09T05:00:31.996Z,45.82
2024-05-09T05:01:24.676Z,45.84
2024-05-09T05:02:23.700Z,45.82
2024-05-09T05:03:23.778Z,45.82
2024-05-09T05:04:23.746Z,45.75
2024-05-09T05:05:23.723Z,45.79
2024-05-09T05:06:23.643Z,45.82
2024-05-09T05:07:23.653Z,45.79
2024-05-09T05:08:23.714Z,45.83
2024-05-09T05:09:23.676Z,45.80
2024-05-09T05:10:32.947Z,45.76
2024-05-09T05:11:24.835Z,45.81
2024-05-09T05:12:23.870Z,45.75
2024-05-09T05:13:24.577Z,45.79
2024-05-09T05:14:23.860Z,45.73
2024-05-09T05:15:23.780Z,45.78
2024-05-09T05:16:23.732Z,45.81
2024-05-09T05:17:23.878Z,45.78
2024-05-09T05:18:23.851Z,45.77
2024-05-09T05:19:23.808Z,45.84
2024-05-09T05:20:30.950Z,45.82
2024-05-09T05:21:24.858Z,45.72
2024-05-09T05:22:27.809Z,45.76
2024-05-09T05:23:23.951Z,45.80
2024-05-09T05:24:23.729Z,45.73
2024-05-09T05:25:23.748Z,45.78
2024-05-09T05:26:23.775Z,45.71
2024-05-09T05:27:23.778Z,45.76
2024-05-09T05:28:23.859Z,45.70
2024-05-09T05:29:23.805Z,45.73
2024-05-09T05:30:29.073Z,45.70
2024-05-09T05:31:24.821Z,45.76
2024-05-09T05:32:23.961Z,45.71
2024-05-09T05:33:23.919Z,45.75
2024-05-09T05:34:23.782Z,45.66
2024-05-09T05:35:23.877Z,45.72
2024-05-09T05:36:23.767Z,45.68
2024-05-09T05:37:23.777Z,45.73
2024-05-09T05:38:27.387Z,45.72
2024-05-09T05:39:23.781Z,45.67
2024-05-09T05:40:32.370Z,45.69
2024-05-09T05:41:24.839Z,45.68
2024-05-09T05:42:26.008Z,45.66
2024-05-09T05:43:23.780Z,45.68
2024-05-09T05:44:23.918Z,45.65
2024-05-09T05:45:23.783Z,45.66
2024-05-09T05:46:23.787Z,45.63
2024-05-09T05:47:23.967Z,45.69
2024-05-09T05:48:24.005Z,45.66
2024-05-09T05:49:24.007Z,45.67
2024-05-09T05:50:31.847Z,45.66
2024-05-09T05:51:24.928Z,45.70
2024-05-09T05:52:23.823Z,45.63
2024-05-09T05:53:23.983Z,45.62
2024-05-09T05:54:23.854Z,45.62
2024-05-09T05:55:23.870Z,45.64
2024-05-09T05:56:23.877Z,45.67
2024-05-09T05:57:23.867Z,45.64
2024-05-09T05:58:23.856Z,45.67
2024-05-09T05:59:23.981Z,45.67
2024-05-09T06:01:23.979Z,45.66
2024-05-09T06:02:24.051Z,45.62
2024-05-09T06:03:24.019Z,45.60
2024-05-09T06:04:24.018Z,45.60
2024-05-09T06:05:25.989Z,45.62
2024-05-09T06:06:23.954Z,45.61
2024-05-09T06:07:23.974Z,45.62
2024-05-09T06:08:26.173Z,45.62
2024-05-09T06:09:23.967Z,45.60
2024-05-09T06:10:26.467Z,45.59
2024-05-09T06:11:25.032Z,45.55
2024-05-09T06:12:24.264Z,45.55
2024-05-09T06:13:23.972Z,45.59
2024-05-09T06:14:24.153Z,45.53
2024-05-09T06:15:23.972Z,45.55
2024-05-09T06:16:23.984Z,45.60
2024-05-09T06:17:24.161Z,45.60
2024-05-09T06:18:24.450Z,45.58
2024-05-09T06:19:24.337Z,45.57
2024-05-09T06:20:31.960Z,45.59
2024-05-09T06:21:24.993Z,45.58
2024-05-09T06:22:23.985Z,45.53
2024-05-09T06:23:23.997Z,45.51
2024-05-09T06:24:23.976Z,45.52
2024-05-09T06:25:23.999Z,45.55
2024-05-09T06:26:24.031Z,45.54
2024-05-09T06:27:23.991Z,45.53
2024-05-09T06:28:23.989Z,45.49
2024-05-09T06:29:24.026Z,45.55
2024-05-09T06:30:30.715Z,45.49
2024-05-09T06:31:24.996Z,45.58
2024-05-09T06:32:24.226Z,45.53
2024-05-09T06:33:24.217Z,45.48
2024-05-09T06:34:24.076Z,45.52
2024-05-09T06:35:24.015Z,45.50
2024-05-09T06:36:24.014Z,45.50
2024-05-09T06:37:24.004Z,45.50
2024-05-09T06:38:24.030Z,45.48
2024-05-09T06:39:24.024Z,45.47
2024-05-09T06:40:29.287Z,45.46
2024-05-09T06:41:25.171Z,45.48
2024-05-09T06:42:24.094Z,45.49
2024-05-09T06:43:24.096Z,45.49
2024-05-09T06:44:24.241Z,45.48
2024-05-09T06:45:24.113Z,45.48
2024-05-09T06:46:24.115Z,45.47
2024-05-09T06:47:24.384Z,45.49
2024-05-09T06:48:24.343Z,45.44
2024-05-09T06:49:24.277Z,45.48
2024-05-09T06:50:28.015Z,45.48
2024-05-09T06:51:25.157Z,45.50
2024-05-09T06:52:24.128Z,45.37
2024-05-09T06:53:24.228Z,45.46
2024-05-09T06:54:24.127Z,45.44
2024-05-09T06:55:24.114Z,45.41
2024-05-09T06:56:24.158Z,45.43
2024-05-09T06:57:24.132Z,45.44
2024-05-09T06:58:24.227Z,45.44
2024-05-09T06:59:24.184Z,45.43
2024-05-09T07:00:30.843Z,45.43
2024-05-09T07:01:25.178Z,45.43
2024-05-09T07:02:24.194Z,45.43
2024-05-09T07:03:24.330Z,45.45
2024-05-09T07:04:24.261Z,45.43
2024-05-09T07:05:24.245Z,45.34
2024-05-09T07:06:24.174Z,45.40
2024-05-09T07:07:24.132Z,45.43
2024-05-09T07:08:24.273Z,45.46
2024-05-09T07:09:24.143Z,45.44
2024-05-09T07:10:29.157Z,45.43
2024-05-09T07:11:25.360Z,45.44
2024-05-09T07:12:24.480Z,45.37
2024-05-09T07:13:24.326Z,45.39
2024-05-09T07:14:24.311Z,45.44
2024-05-09T07:15:24.264Z,45.40
2024-05-09T07:16:24.282Z,45.41
2024-05-09T07:17:24.395Z,45.39
2024-05-09T07:18:24.401Z,45.42
2024-05-09T07:19:24.398Z,45.43
2024-05-09T07:20:32.333Z,45.39
2024-05-09T07:21:25.388Z,45.40
2024-05-09T07:22:24.262Z,45.34
2024-05-09T07:23:24.341Z,45.41
2024-05-09T07:24:24.281Z,45.35
2024-05-09T07:25:24.272Z,45.34
2024-05-09T07:26:24.330Z,45.35
2024-05-09T07:27:24.300Z,45.38
2024-05-09T07:28:24.328Z,45.36
2024-05-09T07:29:24.351Z,45.37
2024-05-09T07:30:32.490Z,45.33
2024-05-09T07:31:25.285Z,45.34
2024-05-09T07:32:24.471Z,45.35
2024-05-09T07:33:24.871Z,45.32
2024-05-09T07:34:24.344Z,45.32
2024-05-09T07:35:24.323Z,45.35
2024-05-09T07:36:24.297Z,45.32
2024-05-09T07:37:24.306Z,45.33
2024-05-09T07:38:24.360Z,45.29
2024-05-09T07:39:24.287Z,45.29
2024-05-09T07:40:32.462Z,45.34
2024-05-09T07:41:25.508Z,45.31
2024-05-09T07:42:24.403Z,45.30
2024-05-09T07:43:24.431Z,45.27
2024-05-09T07:44:24.424Z,45.27
2024-05-09T07:45:43.004Z,45.30
2024-05-09T07:47:20.364Z,45.29
2024-05-09T07:48:56.921Z,45.32
2024-05-09T07:50:00.820Z,45.25
2024-05-09T07:53:33.248Z,45.33
2024-05-09T07:53:42.704Z,45.39
2024-05-09T07:54:35.746Z,45.38
2024-05-09T07:55:34.758Z,45.37
2024-05-09T07:56:35.014Z,45.24
2024-05-09T07:57:34.700Z,45.28
2024-05-09T07:58:34.643Z,45.28
2024-05-09T07:59:37.904Z,45.33
2024-05-09T08:00:34.755Z,45.28
2024-05-09T08:01:34.977Z,45.26
2024-05-09T08:02:34.794Z,45.25
2024-05-09T08:03:34.982Z,45.27
2024-05-09T08:04:34.751Z,45.22
2024-05-09T08:05:34.902Z,45.24
2024-05-09T08:06:34.709Z,45.26
2024-05-09T08:07:34.653Z,45.18
2024-05-09T08:08:34.681Z,45.24
2024-05-09T08:09:36.714Z,45.21
2024-05-09T08:10:34.765Z,45.25
2024-05-09T08:11:34.763Z,45.25
2024-05-09T08:12:34.731Z,45.20
2024-05-09T08:13:34.691Z,45.24
2024-05-09T08:14:34.684Z,45.18
2024-05-09T08:15:34.736Z,45.16
2024-05-09T08:16:34.731Z,45.19
2024-05-09T08:17:34.768Z,45.22
2024-05-09T08:18:34.840Z,45.21
2024-05-09T08:19:34.718Z,45.23
2024-05-09T08:20:35.493Z,45.19
2024-05-09T08:21:34.723Z,45.22
2024-05-09T08:22:34.708Z,45.17
2024-05-09T08:23:34.716Z,45.21
2024-05-09T08:24:34.773Z,45.12
2024-05-09T08:25:34.741Z,45.12
2024-05-09T08:26:34.706Z,45.18
2024-05-09T08:27:34.768Z,45.17
2024-05-09T08:28:34.712Z,45.11
2024-05-09T08:29:34.716Z,45.13
2024-05-09T08:30:37.253Z,45.10
2024-05-09T08:31:34.807Z,45.16
2024-05-09T08:32:34.772Z,45.14
2024-05-09T08:33:34.935Z,45.08
2024-05-09T08:34:34.781Z,45.14
2024-05-09T08:35:35.105Z,45.14
2024-05-09T08:36:34.760Z,45.13
2024-05-09T08:37:38.753Z,45.15
2024-05-09T08:38:35.720Z,45.09
2024-05-09T08:39:34.780Z,45.15
2024-05-09T08:40:36.864Z,45.11
2024-05-09T08:41:34.732Z,45.12
2024-05-09T08:42:34.801Z,45.16
2024-05-09T08:43:35.697Z,45.12
2024-05-09T08:44:34.781Z,45.08
2024-05-09T08:45:34.938Z,45.10
2024-05-09T08:46:34.907Z,45.10
2024-05-09T08:47:34.894Z,45.12
2024-05-09T08:48:34.936Z,45.12
2024-05-09T08:49:36.508Z,45.08
2024-05-09T08:50:38.895Z,45.10
2024-05-09T08:51:35.850Z,45.11
2024-05-09T08:52:34.793Z,45.13
2024-05-09T08:53:34.808Z,45.07
2024-05-09T08:54:34.846Z,45.03
2024-05-09T08:55:35.866Z,45.06
2024-05-09T08:56:34.826Z,45.08
2024-05-09T08:57:34.880Z,45.03
2024-05-09T08:58:34.898Z,45.09
2024-05-09T08:59:34.928Z,45.01
2024-05-09T09:00:37.316Z,45.03
2024-05-09T09:01:36.162Z,45.05
2024-05-09T09:02:35.066Z,45.04
2024-05-09T09:03:35.114Z,45.00
2024-05-09T09:04:35.152Z,45.09
2024-05-09T09:05:35.178Z,45.00
2024-05-09T09:06:34.986Z,45.04
2024-05-09T09:07:34.974Z,45.02
2024-05-09T09:08:35.008Z,45.04
2024-05-09T09:09:35.093Z,45.05
2024-05-09T09:10:35.439Z,45.01
2024-05-09T09:11:35.109Z,44.96
2024-05-09T09:12:35.192Z,45.02
2024-05-09T09:13:35.303Z,44.97
2024-05-09T09:14:35.428Z,44.95
2024-05-09T09:15:35.555Z,45.02
2024-05-09T09:16:35.678Z,45.03
2024-05-09T09:17:35.823Z,45.02
2024-05-09T09:18:36.202Z,45.03
2024-05-09T09:19:36.112Z,45.04
2024-05-09T09:20:37.124Z,44.95
2024-05-09T09:21:36.216Z,44.95
2024-05-09T09:22:36.306Z,45.01
2024-05-09T09:23:36.441Z,44.99
2024-05-09T09:24:36.550Z,45.00
2024-05-09T09:25:36.610Z,45.00
2024-05-09T09:26:36.732Z,45.02
2024-05-09T09:27:36.854Z,45.01
2024-05-09T09:28:36.942Z,44.95
2024-05-09T09:29:37.045Z,44.98
2024-05-09T09:30:38.183Z,45.01
2024-05-09T09:31:37.314Z,44.99
2024-05-09T09:32:37.489Z,44.99
2024-05-09T09:33:37.565Z,44.97
2024-05-09T09:34:37.593Z,44.98
2024-05-09T09:35:37.694Z,44.97
2024-05-09T09:36:37.851Z,44.96
2024-05-09T09:37:37.907Z,44.97
2024-05-09T09:38:38.093Z,44.94
2024-05-09T09:39:38.129Z,44.94
2024-05-09T09:40:42.532Z,44.95
2024-05-09T09:41:39.274Z,44.95
2024-05-09T09:42:38.289Z,44.92
2024-05-09T09:43:38.221Z,44.90
2024-05-09T09:44:42.108Z,44.92
2024-05-09T09:45:38.298Z,44.94
2024-05-09T09:46:38.298Z,44.90
2024-05-09T09:47:38.351Z,44.91
2024-05-09T09:48:38.326Z,44.90
2024-05-09T09:49:38.335Z,44.87
2024-05-09T09:50:38.275Z,44.88
2024-05-09T09:51:38.252Z,44.89
2024-05-09T09:52:38.299Z,44.88
2024-05-09T09:53:38.382Z,44.88
2024-05-09T09:54:38.271Z,44.88
2024-05-09T09:55:38.234Z,44.89
2024-05-09T09:56:38.251Z,44.90
2024-05-09T09:57:38.348Z,44.89
2024-05-09T09:58:38.294Z,44.91
2024-05-09T09:59:38.305Z,44.90
2024-05-09T10:00:38.449Z,44.86
2024-05-09T10:01:38.378Z,44.86
2024-05-09T10:02:38.369Z,44.84
2024-05-09T10:03:38.691Z,44.87
2024-05-09T10:04:38.390Z,44.87
2024-05-09T10:05:40.501Z,44.88
2024-05-09T10:06:38.338Z,44.85
2024-05-09T10:07:38.311Z,44.87
2024-05-09T10:08:38.316Z,44.87
2024-05-09T10:09:38.365Z,44.88
2024-05-09T10:10:38.449Z,44.83
2024-05-09T10:11:42.018Z,44.83
2024-05-09T10:12:39.430Z,44.83
2024-05-09T10:13:38.342Z,44.82
2024-05-09T10:14:38.362Z,44.83
2024-05-09T10:15:38.446Z,44.82
2024-05-09T10:16:38.358Z,44.77
2024-05-09T10:17:38.590Z,44.84
2024-05-09T10:18:39.463Z,44.78
2024-05-09T10:19:38.567Z,44.78
2024-05-09T10:20:38.334Z,44.82
2024-05-09T10:21:38.406Z,44.82
2024-05-09T10:22:38.352Z,44.79
2024-05-09T10:23:38.366Z,44.76
2024-05-09T10:24:38.493Z,44.79
2024-05-09T10:25:38.354Z,44.80
2024-05-09T10:26:38.404Z,44.80
2024-05-09T10:27:38.556Z,44.80
2024-05-09T10:28:38.610Z,44.73
2024-05-09T10:29:38.737Z,44.74
2024-05-09T10:30:39.898Z,44.69
2024-05-09T10:31:38.904Z,44.74
2024-05-09T10:32:38.959Z,44.75
2024-05-09T10:33:39.305Z,44.77
2024-05-09T10:34:39.081Z,44.74
2024-05-09T10:35:39.151Z,44.72
2024-05-09T10:36:39.285Z,44.73
2024-05-09T10:37:39.342Z,44.73
2024-05-09T10:38:39.442Z,44.70
2024-05-09T10:39:39.650Z,44.73
2024-05-09T10:40:39.758Z,44.71
2024-05-09T10:41:39.788Z,44.68
2024-05-09T10:42:39.883Z,44.70
2024-05-09T10:43:39.963Z,44.68
2024-05-09T10:44:40.069Z,44.67
2024-05-09T10:45:40.229Z,44.67
2024-05-09T10:46:40.281Z,44.67
2024-05-09T10:47:40.494Z,44.70
2024-05-09T10:48:40.622Z,44.66
2024-05-09T10:49:40.658Z,44.67
2024-05-09T10:50:40.698Z,44.69
2024-05-09T10:51:40.832Z,44.68
2024-05-09T10:52:40.914Z,44.67
2024-05-09T10:53:41.022Z,44.65
2024-05-09T10:54:41.149Z,44.66
2024-05-09T10:55:41.246Z,44.63
2024-05-09T10:56:41.331Z,44.65
2024-05-09T10:57:41.470Z,44.69
2024-05-09T10:58:42.812Z,44.62
2024-05-09T10:59:41.637Z,44.64
2024-05-09T11:00:41.865Z,44.61
2024-05-09T11:01:41.939Z,44.58
2024-05-09T11:02:42.022Z,44.65
2024-05-09T11:03:42.767Z,44.56
2024-05-09T11:04:42.365Z,44.61
2024-05-09T11:05:42.326Z,44.64
2024-05-09T11:06:42.423Z,44.63
2024-05-09T11:07:42.477Z,44.61
2024-05-09T11:08:42.565Z,44.63
2024-05-09T11:09:42.733Z,44.57
2024-05-09T11:10:42.861Z,44.59
2024-05-09T11:11:42.964Z,44.59
2024-05-09T11:12:43.049Z,44.62
2024-05-09T11:13:43.078Z,44.59
2024-05-09T11:14:43.219Z,44.61
2024-05-09T11:15:43.306Z,44.62
2024-05-09T11:16:43.407Z,44.60
2024-05-09T11:17:43.640Z,44.58
2024-05-09T11:18:43.945Z,44.56
2024-05-09T11:19:43.776Z,44.56
2024-05-09T11:20:43.884Z,44.59
2024-05-09T11:21:43.989Z,44.57
2024-05-09T11:22:44.040Z,44.57
2024-05-09T11:23:44.149Z,44.56
2024-05-09T11:24:44.366Z,44.59
2024-05-09T11:25:44.353Z,44.61
2024-05-09T11:26:44.456Z,44.59
2024-05-09T11:27:44.632Z,44.59
2024-05-09T11:28:44.795Z,44.55
2024-05-09T11:29:44.800Z,44.55
2024-05-09T11:30:44.903Z,44.57
2024-05-09T11:31:45.138Z,44.58
2024-05-09T11:32:45.202Z,44.58
2024-05-09T11:33:45.265Z,44.53
2024-05-09T11:34:45.289Z,44.51
2024-05-09T11:35:45.384Z,44.52
2024-05-09T11:36:45.535Z,44.55
2024-05-09T11:37:45.583Z,44.55
2024-05-09T11:38:45.671Z,44.56
2024-05-09T11:39:45.821Z,44.54
2024-05-09T11:40:46.000Z,44.56
2024-05-09T11:41:46.073Z,44.58
2024-05-09T11:42:46.554Z,44.58
2024-05-09T11:43:46.192Z,44.53
2024-05-09T11:44:46.274Z,44.57
2024-05-09T11:45:46.413Z,44.55
2024-05-09T11:46:46.484Z,44.55
2024-05-09T11:47:46.632Z,44.54
2024-05-09T11:48:46.855Z,44.55
2024-05-09T11:49:46.779Z,44.56
2024-05-09T11:50:46.891Z,44.55
2024-05-09T11:51:46.998Z,44.51
2024-05-09T11:52:47.078Z,44.54
2024-05-09T11:53:47.172Z,44.53
2024-05-09T11:54:47.298Z,44.52
2024-05-09T11:55:47.376Z,44.55
2024-05-09T11:56:47.451Z,44.52
2024-05-09T11:57:47.599Z,44.55
2024-05-09T11:58:47.686Z,44.54
2024-05-09T11:59:47.754Z,44.56
2024-05-09T12:00:47.968Z,44.55
2024-05-09T12:01:48.024Z,44.53
2024-05-09T12:02:48.051Z,44.50
2024-05-09T12:03:48.255Z,44.50
2024-05-09T12:04:48.394Z,44.51
2024-05-09T12:05:48.424Z,44.51
2024-05-09T12:06:48.510Z,44.53
2024-05-09T12:07:48.534Z,44.50
2024-05-09T12:08:48.598Z,44.50
2024-05-09T12:09:48.726Z,44.50
2024-05-09T12:10:49.133Z,44.51
2024-05-09T12:11:48.952Z,44.48
2024-05-09T12:12:49.050Z,44.49
2024-05-09T12:13:49.080Z,44.46
2024-05-09T12:14:49.181Z,44.46
2024-05-09T12:15:49.319Z,44.47
2024-05-09T12:16:49.423Z,44.45
2024-05-09T12:17:50.953Z,44.44
2024-05-09T12:18:49.605Z,44.44
2024-05-09T12:19:49.517Z,44.45
2024-05-09T12:20:49.555Z,44.42
2024-05-09T12:21:49.613Z,44.46
2024-05-09T12:22:49.679Z,44.43
2024-05-09T12:23:56.956Z,44.47
2024-05-09T12:24:56.967Z,44.48
2024-05-09T12:25:56.959Z,44.44
2024-05-09T12:26:56.987Z,44.44
2024-05-09T12:27:56.974Z,44.44
2024-05-09T12:28:56.967Z,44.42
2024-05-09T12:29:56.969Z,44.41
2024-05-09T12:30:57.001Z,44.43
2024-05-09T12:31:56.996Z,44.40
2024-05-09T12:32:57.203Z,44.42
2024-05-09T12:33:57.039Z,44.38
2024-05-09T12:34:57.000Z,44.42
2024-05-09T12:35:56.973Z,44.39
2024-05-09T12:36:56.994Z,44.42
2024-05-09T12:37:56.981Z,44.40
2024-05-09T12:38:57.019Z,44.37
2024-05-09T12:39:56.997Z,44.35
2024-05-09T12:40:57.040Z,44.36
2024-05-09T12:41:56.984Z,44.37
2024-05-09T12:42:57.010Z,44.37
2024-05-09T12:43:56.963Z,44.36
2024-05-09T12:44:56.973Z,44.34
2024-05-09T12:45:57.033Z,44.32
2024-05-09T12:46:56.985Z,44.31
2024-05-09T12:47:57.083Z,44.30
2024-05-09T12:48:57.152Z,44.33
2024-05-09T12:49:57.035Z,44.32
2024-05-09T12:50:57.022Z,44.28
2024-05-09T12:51:57.116Z,44.31
2024-05-09T12:52:57.028Z,44.31
2024-05-09T12:53:57.132Z,44.26
2024-05-09T12:54:57.215Z,44.29
2024-05-09T12:56:01.817Z,44.28
2024-05-09T12:56:58.316Z,44.31
2024-05-09T12:57:57.425Z,44.28
2024-05-09T12:58:57.307Z,44.29
2024-05-09T12:59:57.315Z,44.27
2024-05-09T13:00:57.415Z,44.27
2024-05-09T13:01:59.554Z,44.26
2024-05-09T13:02:57.382Z,44.23